Time;durP1;ratioP1;P1;durP2;ratioP2;P2;SDS_P1;SDS_P2;PMS_P1;PMS_P2;Temp;Humidity;BMP_temperature;BMP_pressure;BME280_temperature;BME280_humidity;BME280_pressure;Samples;Min_cycle;Max_cycle;Signal;HPM_P1;HPM_P2
2022/01/31 00:00:08;;;;;;;23.45;6.90;;;4.30;97.20;;;;;;5023321;28;20504;-83
2022/01/31 00:02:38;;;;;;;26.65;6.65;;;4.40;97.20;;;;;;5043772;28;20551;-80
2022/01/31 00:05:04;;;;;;;22.85;6.47;;;4.30;97.40;;;;;;5049556;28;20033;-80
2022/01/31 00:07:30;;;;;;;31.85;7.20;;;4.30;97.40;;;;;;5043436;28;20029;-80
2022/01/31 00:09:56;;;;;;;29.25;6.80;;;4.30;97.90;;;;;;5024338;28;20032;-82
2022/01/31 00:12:25;;;;;;;30.98;6.25;;;4.20;98.00;;;;;;5005958;28;20036;-81
2022/01/31 00:14:51;;;;;;;24.65;6.20;;;4.20;98.00;;;;;;5023268;28;20481;-81
2022/01/31 00:17:17;;;;;;;27.02;6.47;;;4.20;98.30;;;;;;4992295;28;20033;-81
2022/01/31 00:19:44;;;;;;;31.35;6.38;;;4.20;98.20;;;;;;5036199;28;20029;-82
2022/01/31 00:22:12;;;;;;;27.60;6.00;;;4.30;98.40;;;;;;5028371;28;20393;-80
2022/01/31 00:24:41;;;;;;;27.98;7.20;;;4.20;98.60;;;;;;5042351;28;20123;-81
2022/01/31 00:27:08;;;;;;;30.42;8.27;;;4.30;98.60;;;;;;5041967;28;20029;-81
2022/01/31 00:29:34;;;;;;;30.90;7.57;;;4.20;98.70;;;;;;5026086;28;20040;-81
2022/01/31 00:31:59;;;;;;;25.77;7.15;;;4.20;99.00;;;;;;5026415;28;20069;-82
2022/01/31 00:34:25;;;;;;;30.92;7.50;;;4.20;99.20;;;;;;5024572;28;20113;-81
2022/01/31 00:36:54;;;;;;;30.67;7.00;;;4.10;99.10;;;;;;5040126;28;20136;-81
2022/01/31 00:39:20;;;;;;;26.90;7.00;;;4.20;98.70;;;;;;5038835;28;20033;-81
2022/01/31 00:41:46;;;;;;;30.40;7.22;;;4.30;98.40;;;;;;5056408;28;20040;-81
2022/01/31 00:44:18;;;;;;;24.50;5.90;;;4.20;98.50;;;;;;5025297;28;20706;-81
2022/01/31 00:47:05;;;;;;;34.20;6.43;;;4.20;98.30;;;;;;5025939;28;20033;-82
2022/01/31 00:51:57;;;;;;;23.48;6.85;;;4.30;98.00;;;;;;5040681;28;20476;-82
2022/01/31 00:54:25;;;;;;;28.50;6.90;;;4.20;98.20;;;;;;5024184;28;20040;-82
2022/01/31 00:56:52;;;;;;;30.88;6.28;;;4.30;98.30;;;;;;5024474;28;20033;-79
2022/01/31 00:59:18;;;;;;;33.90;7.43;;;4.20;98.50;;;;;;5041051;28;20028;-83
2022/01/31 01:01:46;;;;;;;29.00;7.07;;;4.10;98.80;;;;;;5040582;28;20435;-82
2022/01/31 01:04:12;;;;;;;28.27;6.75;;;4.10;98.90;;;;;;5041596;28;20094;-82
2022/01/31 01:06:38;;;;;;;21.63;7.18;;;4.10;99.00;;;;;;5026206;28;20107;-81
2022/01/31 01:09:04;;;;;;;22.88;5.70;;;4.10;99.20;;;;;;5022420;28;20033;-82
2022/01/31 01:11:35;;;;;;;31.42;7.00;;;4.00;99.30;;;;;;5036580;28;20029;-80
2022/01/31 01:14:03;;;;;;;36.47;9.60;;;4.00;99.40;;;;;;5060756;28;20028;-81
2022/01/31 01:16:29;;;;;;;32.55;7.00;;;4.00;99.40;;;;;;5043814;28;20095;-80
2022/01/31 01:18:55;;;;;;;27.98;6.90;;;4.00;99.50;;;;;;5040346;28;20493;-81
2022/01/31 01:21:21;;;;;;;37.45;7.53;;;3.90;99.60;;;;;;5025782;28;20037;-80
2022/01/31 01:23:49;;;;;;;29.13;7.57;;;4.00;99.40;;;;;;5039882;28;20094;-80
2022/01/31 01:26:15;;;;;;;29.77;8.02;;;4.00;99.60;;;;;;5023385;28;20159;-85
2022/01/31 01:28:40;;;;;;;34.35;7.13;;;3.90;99.70;;;;;;5038163;28;20033;-81
2022/01/31 01:31:06;;;;;;;28.55;6.72;;;4.00;99.80;;;;;;5041274;28;20013;-79
2022/01/31 01:33:38;;;;;;;30.88;7.82;;;3.90;99.90;;;;;;5041531;28;20041;-79
2022/01/31 01:36:04;;;;;;;34.38;8.95;;;4.00;99.90;;;;;;5013505;28;20044;-80
2022/01/31 01:38:30;;;;;;;33.55;8.23;;;3.90;99.90;;;;;;5007308;28;20057;-80
2022/01/31 01:40:59;;;;;;;31.90;7.85;;;3.90;99.90;;;;;;5024165;28;20029;-82
2022/01/31 01:43:26;;;;;;;28.60;7.07;;;3.90;99.90;;;;;;5042099;28;20120;-82
2022/01/31 01:45:54;;;;;;;34.72;6.30;;;3.90;99.90;;;;;;5023034;28;20048;-79
2022/01/31 01:48:20;;;;;;;36.45;7.60;;;3.90;99.90;;;;;;5040785;28;20659;-80
2022/01/31 01:50:47;;;;;;;32.17;8.10;;;3.90;99.90;;;;;;5024383;28;20052;-81
2022/01/31 01:53:12;;;;;;;30.40;8.35;;;3.80;99.90;;;;;;5039109;28;20032;-80
2022/01/31 01:55:39;;;;;;;29.55;7.43;;;3.80;99.90;;;;;;5039289;28;20033;-80
2022/01/31 01:58:13;;;;;;;41.17;8.02;;;3.70;99.90;;;;;;5039319;28;20110;-80
2022/01/31 02:00:58;;;;;;;37.92;7.88;;;3.80;99.90;;;;;;5066876;28;20033;-80
2022/01/31 02:03:24;;;;;;;;;;;3.80;99.90;;;;;;5043439;28;20052;-80
2022/01/31 02:05:50;;;;;;;31.23;7.10;;;3.80;99.90;;;;;;5051613;28;19904;-81
2022/01/31 02:08:19;;;;;;;38.80;8.38;;;3.80;99.90;;;;;;5052233;28;20037;-81
2022/01/31 02:10:45;;;;;;;37.42;6.95;;;3.80;99.90;;;;;;5035769;28;20081;-80
2022/01/31 02:13:12;;;;;;;41.15;7.85;;;3.70;99.90;;;;;;5047943;28;20025;-79
2022/01/31 02:15:39;;;;;;;22.42;6.68;;;3.70;99.90;;;;;;5045220;28;20021;-81
2022/01/31 02:18:05;;;;;;;36.72;7.03;;;3.70;99.90;;;;;;5037371;28;20102;-81
2022/01/31 02:20:35;;;;;;;33.83;7.57;;;3.70;99.90;;;;;;5055842;28;20492;-81
2022/01/31 02:23:03;;;;;;;32.30;7.32;;;3.70;99.90;;;;;;5047011;28;20036;-81
2022/01/31 02:25:28;;;;;;;38.75;7.97;;;3.70;99.90;;;;;;5057416;28;20075;-81
2022/01/31 02:27:54;;;;;;;32.90;6.60;;;3.60;99.90;;;;;;5039658;28;20083;-81
2022/01/31 02:30:19;;;;;;;33.28;9.35;;;3.60;99.90;;;;;;5023318;28;20043;-80
2022/01/31 02:32:45;;;;;;;29.73;8.68;;;3.60;99.90;;;;;;5039718;28;20121;-80
2022/01/31 02:35:11;;;;;;;29.23;6.80;;;3.60;99.90;;;;;;5039759;28;20035;-81
2022/01/31 02:37:37;;;;;;;30.95;7.30;;;3.70;99.90;;;;;;5070363;28;20090;-78
2022/01/31 02:40:04;;;;;;;31.80;7.53;;;3.60;99.90;;;;;;5080731;28;20044;-79
2022/01/31 02:42:29;;;;;;;33.15;7.72;;;3.60;99.90;;;;;;5063768;28;20043;-79
2022/01/31 02:44:55;;;;;;;32.83;7.03;;;3.60;99.90;;;;;;5055835;28;20041;-82
2022/01/31 02:47:25;;;;;;;36.30;9.35;;;3.70;99.90;;;;;;5020194;28;20041;-83
2022/01/31 02:50:00;;;;;;;29.83;7.70;;;3.80;99.90;;;;;;5002143;28;20025;-81
2022/01/31 02:52:30;;;;;;;38.08;8.57;;;3.80;99.90;;;;;;5034833;28;20032;-80
2022/01/31 02:54:56;;;;;;;29.00;7.85;;;3.70;99.90;;;;;;5041321;28;20033;-81
2022/01/31 02:57:22;;;;;;;28.50;7.90;;;3.60;99.90;;;;;;5041938;28;20029;-81
2022/01/31 02:59:47;;;;;;;34.35;8.13;;;3.60;99.90;;;;;;5028370;28;20472;-79
2022/01/31 03:02:14;;;;;;;33.35;6.72;;;3.60;99.90;;;;;;5027111;28;20090;-81
2022/01/31 03:04:40;;;;;;;27.58;8.25;;;3.70;99.90;;;;;;5012108;28;20056;-80
2022/01/31 03:07:06;;;;;;;37.67;7.50;;;3.80;99.90;;;;;;5044369;28;20040;-81
2022/01/31 03:09:31;;;;;;;30.30;6.90;;;3.90;99.90;;;;;;5044662;28;20024;-81
2022/01/31 03:11:58;;;;;;;27.85;7.53;;;3.90;99.90;;;;;;5044266;28;20020;-80
2022/01/31 03:14:23;;;;;;;32.55;8.73;;;3.90;99.90;;;;;;5012401;28;20051;-80
2022/01/31 03:16:49;;;;;;;34.45;7.75;;;4.00;99.90;;;;;;5028799;28;20037;-80
2022/01/31 03:19:16;;;;;;;41.75;8.88;;;4.00;99.90;;;;;;5012577;28;20578;-80
2022/01/31 03:21:42;;;;;;;34.00;6.53;;;3.90;99.90;;;;;;5033675;28;20044;-79
2022/01/31 03:24:09;;;;;;;24.85;7.03;;;3.90;99.90;;;;;;5047999;28;20048;-80
2022/01/31 03:26:34;;;;;;;27.92;8.02;;;4.00;99.90;;;;;;5036663;28;20041;-80
2022/01/31 03:29:00;;;;;;;29.00;7.75;;;3.90;99.90;;;;;;5024839;28;20044;-80
2022/01/31 03:31:25;;;;;;;27.38;8.25;;;4.00;99.90;;;;;;5010008;28;20089;-81
2022/01/31 03:33:53;;;;;;;35.22;8.77;;;4.00;99.90;;;;;;5006843;28;20040;-79
2022/01/31 03:36:19;;;;;;;28.65;7.93;;;3.90;99.90;;;;;;5031784;28;20025;-80
2022/01/31 03:38:46;;;;;;;28.55;7.45;;;4.00;99.90;;;;;;5045445;28;20045;-82
2022/01/31 03:41:15;;;;;;;23.75;7.65;;;3.90;99.90;;;;;;5041850;28;20025;-80
2022/01/31 03:43:42;;;;;;;33.28;9.35;;;3.80;99.90;;;;;;5030682;28;20044;-82
2022/01/31 03:46:08;;;;;;;31.02;8.15;;;3.70;99.90;;;;;;5048914;28;20025;-81
2022/01/31 03:48:33;;;;;;;36.60;7.55;;;3.80;99.90;;;;;;5051954;28;20033;-80
2022/01/31 03:51:01;;;;;;;33.30;7.82;;;3.80;99.90;;;;;;5065388;28;20029;-81
2022/01/31 03:53:26;;;;;;;33.50;8.23;;;3.80;99.90;;;;;;5046449;28;20025;-80
2022/01/31 03:55:52;;;;;;;23.77;8.10;;;3.80;99.90;;;;;;5031699;28;20040;-81
2022/01/31 03:58:18;;;;;;;28.63;7.50;;;3.80;99.90;;;;;;5030891;28;20582;-78
2022/01/31 04:00:44;;;;;;;33.22;9.95;;;3.80;99.90;;;;;;5028422;28;20037;-81
2022/01/31 04:03:10;;;;;;;26.58;7.00;;;3.80;99.90;;;;;;5012527;28;20037;-80
2022/01/31 04:05:37;;;;;;;32.75;7.65;;;3.70;99.90;;;;;;5052482;28;20095;-79
2022/01/31 04:08:03;;;;;;;33.50;9.35;;;3.70;99.90;;;;;;5031815;28;20033;-82
2022/01/31 04:10:29;;;;;;;28.70;8.57;;;3.70;99.90;;;;;;5032803;28;20138;-81
2022/01/31 04:12:55;;;;;;;32.63;8.65;;;3.80;99.90;;;;;;5033443;28;20115;-81
2022/01/31 04:15:21;;;;;;;37.15;8.32;;;3.80;99.90;;;;;;5026126;28;20091;-80
2022/01/31 04:17:46;;;;;;;28.27;8.05;;;3.90;99.90;;;;;;5010738;28;20068;-81
2022/01/31 04:20:12;;;;;;;29.13;8.40;;;3.80;99.90;;;;;;5028417;28;20037;-79
2022/01/31 04:22:51;;;;;;;28.38;7.60;;;3.80;99.90;;;;;;5006139;28;20120;-81
2022/01/31 04:25:28;;;;;;;25.55;8.13;;;3.70;99.90;;;;;;5027173;28;20050;-80
2022/01/31 04:28:02;;;;;;;30.80;8.90;;;3.80;99.90;;;;;;5022226;28;20079;-81
2022/01/31 04:30:32;;;;;;;31.55;9.00;;;3.80;99.90;;;;;;5047856;28;20029;-82
2022/01/31 04:32:57;;;;;;;23.15;7.05;;;3.90;99.90;;;;;;5049250;28;20033;-80
2022/01/31 04:35:23;;;;;;;25.83;7.43;;;3.90;99.90;;;;;;5015461;28;20033;-81
2022/01/31 04:37:49;;;;;;;29.45;8.68;;;3.90;99.90;;;;;;5028118;28;20045;-81
2022/01/31 04:40:15;;;;;;;24.90;6.75;;;3.90;99.90;;;;;;5026307;28;20030;-82
2022/01/31 04:42:43;;;;;;;30.52;9.10;;;4.00;99.90;;;;;;5020765;28;20100;-82
2022/01/31 04:45:09;;;;;;;26.23;7.72;;;3.90;99.90;;;;;;5019846;28;20042;-82
2022/01/31 04:47:35;;;;;;;26.67;8.10;;;3.90;99.90;;;;;;5004877;28;20033;-81
2022/01/31 04:50:00;;;;;;;28.60;7.80;;;3.90;99.90;;;;;;5020169;28;20036;-82
2022/01/31 04:52:26;;;;;;;35.20;8.80;;;3.90;99.90;;;;;;5020942;28;20083;-82
2022/01/31 04:54:52;;;;;;;30.27;7.57;;;3.90;99.90;;;;;;4987819;28;20049;-81
2022/01/31 04:57:17;;;;;;;28.27;7.30;;;3.90;99.90;;;;;;4986147;28;20041;-81
2022/01/31 04:59:43;;;;;;;29.05;7.90;;;3.90;99.90;;;;;;5018042;28;20048;-80
2022/01/31 05:02:10;;;;;;;29.85;8.13;;;4.00;99.90;;;;;;4996576;28;20029;-83
2022/01/31 05:04:35;;;;;;;30.88;8.63;;;4.00;99.90;;;;;;5023442;28;20032;-83
2022/01/31 05:07:01;;;;;;;30.30;8.40;;;4.00;99.90;;;;;;5020363;28;20516;-83
2022/01/31 05:09:27;;;;;;;26.13;7.22;;;4.00;99.90;;;;;;5004645;28;20400;-83
2022/01/31 05:11:55;;;;;;;28.23;9.00;;;3.90;99.90;;;;;;5025688;28;20453;-82
2022/01/31 05:14:20;;;;;;;29.50;8.27;;;4.00;99.90;;;;;;5041060;28;20025;-84
2022/01/31 05:16:46;;;;;;;23.33;9.35;;;4.00;99.90;;;;;;5020276;28;20708;-81
2022/01/31 05:19:12;;;;;;;33.85;9.68;;;3.90;99.90;;;;;;4988270;28;20034;-83
2022/01/31 05:21:38;;;;;;;28.13;8.63;;;3.90;99.90;;;;;;5021557;28;20063;-82
2022/01/31 05:24:06;;;;;;;30.52;8.85;;;3.90;99.90;;;;;;5042573;28;20072;-81
2022/01/31 05:26:33;;;;;;;24.27;8.25;;;3.80;99.90;;;;;;5059030;28;20095;-83
2022/01/31 05:28:59;;;;;;;29.48;8.35;;;3.80;99.90;;;;;;5024517;28;20037;-79
2022/01/31 05:31:25;;;;;;;33.05;9.25;;;3.80;99.90;;;;;;5040728;28;20028;-80
2022/01/31 05:33:50;;;;;;;28.42;8.10;;;3.80;99.90;;;;;;5035316;28;20075;-83
2022/01/31 05:36:16;;;;;;;23.80;7.05;;;3.80;99.90;;;;;;5029729;28;20033;-81
2022/01/31 05:38:42;;;;;;;22.30;7.88;;;3.80;99.90;;;;;;5031158;28;20041;-83
2022/01/31 05:41:08;;;;;;;32.70;7.53;;;3.80;99.90;;;;;;5044607;28;20009;-83
2022/01/31 05:43:35;;;;;;;24.75;7.53;;;3.80;99.90;;;;;;5060997;28;20025;-83
2022/01/31 05:46:01;;;;;;;28.92;8.30;;;3.80;99.90;;;;;;5059049;28;20029;-81
2022/01/31 05:48:26;;;;;;;26.05;8.10;;;3.90;99.90;;;;;;5048243;28;20043;-82
2022/01/31 05:50:52;;;;;;;25.10;7.93;;;3.90;99.90;;;;;;5015428;28;20055;-80
2022/01/31 05:53:18;;;;;;;23.60;8.23;;;3.90;99.90;;;;;;5033741;28;20025;-81
2022/01/31 05:55:45;;;;;;;26.83;7.90;;;4.00;99.90;;;;;;5049176;28;20040;-80
2022/01/31 05:58:10;;;;;;;28.75;8.77;;;3.90;99.90;;;;;;5048365;28;20033;-81
2022/01/31 06:00:37;;;;;;;24.85;7.70;;;3.90;99.90;;;;;;5012100;28;20493;-81
2022/01/31 06:03:04;;;;;;;31.70;8.27;;;3.90;99.90;;;;;;5028961;28;20037;-83
2022/01/31 06:05:32;;;;;;;35.17;9.55;;;3.90;99.90;;;;;;5038325;28;20056;-81
2022/01/31 06:07:58;;;;;;;28.52;7.80;;;3.90;99.90;;;;;;5032378;28;20182;-80
2022/01/31 06:10:24;;;;;;;35.55;8.35;;;3.90;99.90;;;;;;5032922;28;20028;-81
2022/01/31 06:12:52;;;;;;;36.20;10.23;;;4.00;99.90;;;;;;5032290;28;20031;-81
2022/01/31 06:15:18;;;;;;;27.67;9.30;;;4.00;99.90;;;;;;5048332;28;20021;-80
2022/01/31 06:17:43;;;;;;;28.55;7.80;;;4.00;99.90;;;;;;5048010;28;20037;-81
2022/01/31 06:20:09;;;;;;;25.80;8.07;;;3.80;99.90;;;;;;5047476;28;20061;-81
2022/01/31 06:22:35;;;;;;;30.30;8.55;;;3.80;99.90;;;;;;5034484;28;20586;-81
2022/01/31 06:25:01;;;;;;;31.73;8.32;;;3.90;99.90;;;;;;5045507;28;20127;-81
2022/01/31 06:27:29;;;;;;;29.92;8.25;;;3.80;99.90;;;;;;5027204;28;20045;-81
2022/01/31 06:29:57;;;;;;;22.10;7.38;;;3.80;99.90;;;;;;5010815;28;20033;-82
2022/01/31 06:32:25;;;;;;;19.77;6.97;;;3.90;99.90;;;;;;5028551;28;20573;-81
2022/01/31 06:34:53;;;;;;;25.08;7.75;;;4.00;99.90;;;;;;5045266;28;20029;-82
2022/01/31 06:37:18;;;;;;;25.20;7.28;;;3.90;99.90;;;;;;5043572;28;20041;-81
2022/01/31 06:39:44;;;;;;;20.95;6.82;;;4.00;99.90;;;;;;5026397;28;20106;-82
2022/01/31 06:42:10;;;;;;;24.90;7.25;;;3.90;99.90;;;;;;5023677;28;20040;-80
2022/01/31 06:44:37;;;;;;;29.35;8.52;;;3.90;99.90;;;;;;5019878;28;20095;-80
2022/01/31 06:47:03;;;;;;;22.08;8.27;;;3.90;99.90;;;;;;4988046;28;20378;-82
2022/01/31 06:49:28;;;;;;;21.48;8.10;;;3.70;99.90;;;;;;5044664;28;20059;-81
2022/01/31 06:51:54;;;;;;;24.90;8.73;;;3.70;99.90;;;;;;5059260;28;20036;-80
2022/01/31 06:54:19;;;;;;;30.92;8.80;;;3.60;99.90;;;;;;5042781;28;20089;-79
2022/01/31 06:56:45;;;;;;;27.25;9.52;;;3.40;99.90;;;;;;5028603;28;20421;-81
2022/01/31 06:59:11;;;;;;;31.70;8.70;;;3.30;99.90;;;;;;5021539;28;20064;-81
2022/01/31 07:01:37;;;;;;;29.35;9.60;;;3.20;99.90;;;;;;5037262;28;20484;-81
2022/01/31 07:04:03;;;;;;;31.42;9.27;;;3.20;99.90;;;;;;5020501;28;20052;-80
2022/01/31 07:06:28;;;;;;;32.47;9.13;;;3.20;99.90;;;;;;5019753;28;20037;-81
2022/01/31 07:08:54;;;;;;;31.13;10.60;;;3.10;99.90;;;;;;5035955;28;20432;-81
2022/01/31 07:11:25;;;;;;;25.63;8.85;;;2.90;99.90;;;;;;5036785;28;20033;-81
2022/01/31 07:14:02;;;;;;;30.90;10.07;;;2.90;99.90;;;;;;5022096;28;20036;-83
2022/01/31 07:16:28;;;;;;;30.75;8.38;;;2.90;99.90;;;;;;5039685;28;20449;-81
2022/01/31 07:18:59;;;;;;;31.25;8.90;;;2.70;99.90;;;;;;5021607;28;20065;-79
2022/01/31 07:21:33;;;;;;;31.40;10.68;;;2.80;99.90;;;;;;5022577;28;20040;-82
2022/01/31 07:26:36;;;;;;;31.85;9.13;;;2.60;99.90;;;;;;5060316;28;20029;-83
2022/01/31 07:29:01;;;;;;;24.38;8.32;;;2.70;99.90;;;;;;5041064;28;20086;-81
2022/01/31 07:31:27;;;;;;;22.08;7.63;;;2.70;99.90;;;;;;5040824;28;20036;-79
2022/01/31 07:33:53;;;;;;;22.20;7.53;;;2.70;99.90;;;;;;5040136;28;20033;-84
2022/01/31 07:36:22;;;;;;;27.17;8.63;;;2.80;99.90;;;;;;5057401;28;20480;-82
2022/01/31 07:38:47;;;;;;;28.30;8.10;;;2.70;99.90;;;;;;5040645;28;20033;-81
2022/01/31 07:41:14;;;;;;;27.55;8.32;;;2.70;99.90;;;;;;5056937;28;20053;-82
2022/01/31 07:43:43;;;;;;;20.73;7.32;;;2.70;99.90;;;;;;5037336;28;20035;-80
2022/01/31 07:46:12;;;;;;;22.67;7.80;;;2.70;99.90;;;;;;5035231;28;20029;-82
2022/01/31 07:48:38;;;;;;;25.08;7.57;;;2.60;99.90;;;;;;5039657;28;20029;-81
2022/01/31 07:51:04;;;;;;;20.77;7.20;;;2.60;99.90;;;;;;5005354;28;20071;-81
2022/01/31 07:53:33;;;;;;;23.33;9.10;;;2.70;99.90;;;;;;5019687;28;20037;-81
2022/01/31 07:56:00;;;;;;;23.63;7.60;;;2.80;99.90;;;;;;5020568;28;20025;-83
2022/01/31 07:58:26;;;;;;;30.95;8.63;;;2.80;99.90;;;;;;5037907;28;20033;-82
2022/01/31 08:00:52;;;;;;;24.38;11.48;;;2.70;99.90;;;;;;5023412;28;20039;-82
2022/01/31 08:03:17;;;;;;;17.55;7.55;;;2.60;99.90;;;;;;5029986;28;20648;-82
2022/01/31 08:05:43;;;;;;;26.40;8.80;;;2.50;99.90;;;;;;5042901;28;20040;-81
2022/01/31 08:08:09;;;;;;;19.48;7.20;;;2.50;99.90;;;;;;5040817;28;20059;-81
2022/01/31 08:10:37;;;;;;;20.50;7.25;;;2.40;99.90;;;;;;5044020;28;20021;-79
2022/01/31 08:13:04;;;;;;;21.30;7.20;;;2.50;99.90;;;;;;5007595;28;20086;-81
2022/01/31 08:15:32;;;;;;;23.67;8.55;;;2.60;99.90;;;;;;5024562;28;20029;-79
2022/01/31 08:17:58;;;;;;;17.75;7.90;;;2.60;99.90;;;;;;5022275;28;20033;-79
2022/01/31 08:20:23;;;;;;;19.08;7.45;;;2.70;99.90;;;;;;5011979;28;20028;-80
2022/01/31 08:22:49;;;;;;;24.92;7.20;;;2.70;99.90;;;;;;5028966;28;20085;-81
2022/01/31 08:25:14;;;;;;;16.33;6.70;;;2.70;99.90;;;;;;5015687;28;20045;-79
2022/01/31 08:27:43;;;;;;;15.52;6.35;;;2.70;99.90;;;;;;5044316;28;20044;-80
2022/01/31 08:30:13;;;;;;;17.77;7.00;;;2.80;99.90;;;;;;5041424;28;20105;-80
2022/01/31 08:32:47;;;;;;;20.13;7.70;;;2.70;99.90;;;;;;5027279;28;20052;-81
2022/01/31 08:37:57;;;;;;;20.35;8.30;;;2.70;99.90;;;;;;5025686;28;20042;-80
2022/01/31 08:40:23;;;;;;;18.65;9.48;;;2.80;99.90;;;;;;5020356;28;20048;-81
2022/01/31 08:42:51;;;;;;;18.40;9.05;;;2.90;99.90;;;;;;5005539;28;20041;-81
2022/01/31 08:45:16;;;;;;;24.48;9.18;;;2.90;99.90;;;;;;5043169;28;20045;-81
2022/01/31 08:47:42;;;;;;;17.58;8.98;;;2.90;99.90;;;;;;5026578;28;20093;-84
2022/01/31 08:50:12;;;;;;;21.48;10.00;;;2.90;99.90;;;;;;5022443;28;20044;-81
2022/01/31 08:52:38;;;;;;;21.60;10.43;;;2.90;99.90;;;;;;5005703;28;20037;-81
2022/01/31 08:55:04;;;;;;;21.38;10.18;;;2.90;99.90;;;;;;5023478;28;20116;-80
2022/01/31 08:57:30;;;;;;;15.77;9.13;;;2.90;99.90;;;;;;5024162;28;20522;-81
2022/01/31 08:59:56;;;;;;;17.08;8.55;;;2.80;99.90;;;;;;5038918;28;20112;-80
2022/01/31 09:02:36;;;;;;;19.42;8.82;;;2.80;99.90;;;;;;5005571;28;20496;-81
2022/01/31 09:05:01;;;;;;;17.67;8.98;;;2.80;99.90;;;;;;5029055;28;20045;-79
2022/01/31 09:07:28;;;;;;;16.77;8.40;;;2.80;99.90;;;;;;5009434;28;20086;-79
2022/01/31 09:09:54;;;;;;;15.60;8.52;;;2.90;99.90;;;;;;5067453;28;20044;-80
2022/01/31 09:12:21;;;;;;;18.38;8.43;;;2.80;99.90;;;;;;5041861;28;20064;-80
2022/01/31 09:14:46;;;;;;;18.15;8.93;;;2.90;99.90;;;;;;5042118;28;20029;-81
2022/01/31 09:17:12;;;;;;;14.50;8.23;;;2.80;99.90;;;;;;5025701;28;20033;-80
2022/01/31 09:19:38;;;;;;;19.50;9.10;;;2.80;99.90;;;;;;5044194;28;20037;-82
2022/01/31 09:22:04;;;;;;;17.00;8.57;;;2.70;99.90;;;;;;5027879;28;20029;-79
2022/01/31 09:24:30;;;;;;;15.18;8.68;;;2.80;99.90;;;;;;5049578;28;20037;-79
2022/01/31 09:26:56;;;;;;;14.35;8.98;;;2.80;99.90;;;;;;5045343;28;20037;-80
2022/01/31 09:29:22;;;;;;;22.95;11.00;;;2.70;99.90;;;;;;5044123;28;20033;-80
2022/01/31 09:31:48;;;;;;;17.58;9.15;;;2.70;99.90;;;;;;5026568;28;20033;-81
2022/01/31 09:34:13;;;;;;;17.50;8.77;;;2.70;99.90;;;;;;5027466;28;20088;-79
2022/01/31 09:36:39;;;;;;;16.63;9.60;;;2.80;99.90;;;;;;5025092;28;20123;-81
2022/01/31 09:39:07;;;;;;;18.83;10.20;;;2.80;99.90;;;;;;5033918;28;20037;-82
2022/01/31 09:41:35;;;;;;;19.30;9.55;;;2.70;99.90;;;;;;5041775;28;20087;-80
2022/01/31 09:44:36;;;;;;;20.13;10.10;;;2.60;99.90;;;;;;5059033;28;20025;-81
2022/01/31 09:49:22;;;;;;;12.32;8.65;;;2.70;99.90;;;;;;5077677;28;20060;-82
2022/01/31 09:51:48;;;;;;;14.85;8.95;;;2.60;99.90;;;;;;5041612;28;20040;-81
2022/01/31 09:54:14;;;;;;;15.60;8.82;;;2.50;99.90;;;;;;5053212;28;20037;-82
2022/01/31 09:56:42;;;;;;;19.63;9.38;;;2.40;99.90;;;;;;5061610;28;20033;-81
2022/01/31 09:59:10;;;;;;;14.10;8.48;;;2.40;99.90;;;;;;5042780;28;20120;-82
2022/01/31 10:01:57;;;;;;;13.40;8.52;;;2.40;99.90;;;;;;5060556;28;20116;-84
2022/01/31 10:04:30;;;;;;;14.20;8.68;;;2.40;99.90;;;;;;5021122;28;20104;-85
2022/01/31 10:06:57;;;;;;;14.60;8.20;;;2.50;99.90;;;;;;5026492;28;20052;-85
2022/01/31 10:19:24;;;;;;;14.80;9.60;;;2.60;99.90;;;;;;5060329;28;20172;-82
2022/01/31 10:21:54;;;;;;;10.63;7.85;;;2.60;99.90;;;;;;5035481;28;20025;-81
2022/01/31 10:24:20;;;;;;;10.93;6.93;;;2.70;99.90;;;;;;5038494;28;20044;-82
2022/01/31 10:26:54;;;;;;;9.60;6.78;;;2.70;99.90;;;;;;5025477;28;20047;-83
2022/01/31 10:29:27;;;;;;;9.30;6.70;;;2.60;99.90;;;;;;5061654;28;20029;-84
2022/01/31 10:32:23;;;;;;;10.32;8.07;;;2.50;99.90;;;;;;5037421;28;20045;-84
2022/01/31 10:35:06;;;;;;;9.40;6.90;;;2.50;99.90;;;;;;5018687;28;20014;-83
2022/01/31 10:37:53;;;;;;;10.50;7.20;;;2.60;99.90;;;;;;5033480;28;20079;-82
2022/01/31 10:52:10;;;;;;;7.87;6.27;;;2.70;99.90;;;;;;5031871;28;20606;-83
2022/01/31 10:57:32;;;;;;;10.10;6.10;;;2.90;99.90;;;;;;5058726;28;20029;-81
2022/01/31 11:00:01;;;;;;;9.65;5.88;;;2.80;99.90;;;;;;5047144;28;20060;-80
2022/01/31 11:02:27;;;;;;;11.30;6.55;;;2.70;99.90;;;;;;5042849;28;20112;-81
2022/01/31 11:04:53;;;;;;;7.60;6.15;;;2.70;99.90;;;;;;5013996;28;20037;-81
2022/01/31 11:07:21;;;;;;;8.45;6.57;;;2.80;99.90;;;;;;5023468;28;20025;-82
2022/01/31 11:09:49;;;;;;;9.30;6.65;;;2.80;99.90;;;;;;5039727;28;20056;-80
2022/01/31 11:12:15;;;;;;;11.52;7.70;;;2.70;99.90;;;;;;5023256;28;20476;-80
2022/01/31 11:14:43;;;;;;;11.25;7.18;;;2.80;99.90;;;;;;5027451;28;20039;-81
2022/01/31 11:17:16;;;;;;;8.18;6.55;;;2.90;99.90;;;;;;5023458;28;20041;-79
2022/01/31 11:19:44;;;;;;;12.70;7.30;;;2.90;99.90;;;;;;5036265;28;20071;-80
2022/01/31 11:22:16;;;;;;;12.50;7.93;;;2.70;99.90;;;;;;5030527;28;20034;-83
2022/01/31 11:24:48;;;;;;;13.93;7.07;;;2.80;99.90;;;;;;5038598;28;20135;-81
2022/01/31 11:27:19;;;;;;;12.20;7.78;;;2.90;99.90;;;;;;5039419;28;20040;-83
2022/01/31 11:29:52;;;;;;;18.65;8.40;;;2.80;99.90;;;;;;5038821;28;20025;-86
2022/01/31 11:32:19;;;;;;;18.67;8.90;;;2.90;99.90;;;;;;5051341;28;20017;-83
2022/01/31 11:34:48;;;;;;;15.82;7.88;;;2.90;99.90;;;;;;5054595;28;20036;-84
2022/01/31 11:37:16;;;;;;;10.18;7.45;;;3.00;99.90;;;;;;5021278;28;20035;-79
2022/01/31 11:39:55;;;;;;;14.70;7.45;;;3.00;99.90;;;;;;5037838;28;20087;-82
2022/01/31 11:42:21;;;;;;;9.32;7.07;;;3.20;99.90;;;;;;5031066;28;20021;-80
2022/01/31 11:44:57;;;;;;;16.13;8.55;;;3.20;99.90;;;;;;5040194;28;20090;-81
2022/01/31 11:47:25;;;;;;;13.65;9.40;;;3.20;99.90;;;;;;5039593;28;20021;-80
2022/01/31 11:49:55;;;;;;;14.50;7.75;;;3.30;99.90;;;;;;5024402;28;20446;-82
2022/01/31 11:52:21;;;;;;;12.63;7.72;;;3.30;99.90;;;;;;5040046;28;20044;-85
2022/01/31 11:54:52;;;;;;;11.00;7.20;;;3.40;99.90;;;;;;5020640;28;20108;-84
2022/01/31 11:57:33;;;;;;;11.13;7.32;;;3.40;99.90;;;;;;5008536;28;20029;-82
2022/01/31 12:00:03;;;;;;;11.80;7.40;;;3.40;99.90;;;;;;5025128;28;20036;-84
2022/01/31 12:02:42;;;;;;;13.70;7.85;;;3.40;99.90;;;;;;5030122;28;20021;-82
2022/01/31 12:05:12;;;;;;;10.93;7.72;;;3.50;99.90;;;;;;5005889;28;20114;-83
2022/01/31 12:07:40;;;;;;;9.13;6.65;;;3.70;99.90;;;;;;5038157;28;20582;-83
2022/01/31 12:10:26;;;;;;;9.95;6.60;;;3.80;99.90;;;;;;5039477;28;20336;-80
2022/01/31 12:13:00;;;;;;;12.48;7.68;;;3.90;99.90;;;;;;5038667;28;20033;-81
2022/01/31 12:15:42;;;;;;;10.98;7.43;;;3.80;99.90;;;;;;5025477;28;20401;-81
2022/01/31 12:23:58;;;;;;;10.65;7.45;;;4.00;99.90;;;;;;5072738;28;20029;-82
2022/01/31 12:26:33;;;;;;;12.27;7.70;;;4.00;99.90;;;;;;5043099;28;20036;-82
2022/01/31 12:29:10;;;;;;;11.18;7.30;;;4.10;99.90;;;;;;5024668;28;20083;-83
2022/01/31 12:31:47;;;;;;;12.50;7.03;;;4.40;99.90;;;;;;5032642;28;20045;-84
2022/01/31 12:34:21;;;;;;;10.90;6.53;;;4.50;99.90;;;;;;5008719;28;20040;-82
2022/01/31 12:36:50;;;;;;;;;;;4.60;99.90;;;;;;5034069;28;20242;-80
2022/01/31 12:39:43;;;;;;;9.50;6.03;;;4.70;99.90;;;;;;5044249;28;19909;-82
2022/01/31 12:42:50;;;;;;;8.00;6.25;;;4.80;99.90;;;;;;5032304;28;20619;-83
2022/01/31 12:45:17;;;;;;;8.40;5.95;;;4.90;99.90;;;;;;5047853;28;20040;-83
2022/01/31 12:48:11;;;;;;;8.13;6.35;;;4.80;99.90;;;;;;5034148;28;20049;-83
2022/01/31 12:50:42;;;;;;;7.85;6.35;;;4.80;99.90;;;;;;5030191;28;20044;-84
2022/01/31 12:53:23;;;;;;;10.55;6.90;;;4.80;99.90;;;;;;5036350;28;20641;-82
2022/01/31 12:56:26;;;;;;;9.68;6.70;;;4.90;99.90;;;;;;5039307;28;20029;-82
2022/01/31 12:58:58;;;;;;;8.98;6.30;;;4.80;99.90;;;;;;5045136;28;20029;-81
2022/01/31 13:01:31;;;;;;;8.73;6.43;;;4.90;99.90;;;;;;5042409;28;20378;-82
2022/01/31 13:04:12;;;;;;;13.05;6.50;;;4.80;99.90;;;;;;5024090;28;20040;-82
2022/01/31 13:06:41;;;;;;;8.15;5.88;;;4.90;99.90;;;;;;5045789;28;20025;-81
2022/01/31 13:09:11;;;;;;;8.25;5.70;;;4.90;99.90;;;;;;5057224;28;20036;-82
2022/01/31 13:11:39;;;;;;;8.88;5.63;;;5.00;99.90;;;;;;5033804;28;20029;-81
2022/01/31 13:14:09;;;;;;;9.85;5.55;;;4.90;99.90;;;;;;5042517;28;20050;-84
2022/01/31 13:17:07;;;;;;;8.52;5.22;;;5.00;99.90;;;;;;5029324;28;20259;-85
2022/01/31 13:19:36;;;;;;;6.75;4.90;;;5.00;99.90;;;;;;5045804;28;20029;-82
2022/01/31 13:22:12;;;;;;;6.22;4.05;;;4.90;99.90;;;;;;5049047;28;20030;-83
2022/01/31 13:24:57;;;;;;;5.07;4.13;;;5.00;99.90;;;;;;5042156;28;20033;-82
2022/01/31 13:27:39;;;;;;;7.35;4.22;;;4.90;99.90;;;;;;5023747;28;20517;-84
2022/01/31 13:30:15;;;;;;;5.47;3.85;;;4.90;99.90;;;;;;5039445;28;20051;-81
2022/01/31 13:32:40;;;;;;;6.20;3.97;;;5.00;99.90;;;;;;5051248;28;20017;-83
2022/01/31 13:35:08;;;;;;;6.55;4.40;;;4.90;99.90;;;;;;5028528;28;20416;-84